Time;durP1;ratioP1;P1;durP2;ratioP2;P2;SDS_P1;SDS_P2;PMS_P1;PMS_P2;Temp;Humidity;BMP_temperature;BMP_pressure;BME280_temperature;BME280_humidity;BME280_pressure;Samples;Min_cycle;Max_cycle;Signal;HPM_P1;HPM_P2
2022/07/14 00:01:23;;;;;;;4.83;1.60;;;20.80;27.10;;;;;;5039275;28;46307;-61
2022/07/14 00:03:49;;;;;;;4.80;2.10;;;20.80;27.20;;;;;;5036625;28;46353;-64
2022/07/14 00:06:16;;;;;;;4.70;1.60;;;20.80;27.30;;;;;;5038333;28;46429;-63
2022/07/14 00:08:44;;;;;;;3.93;1.90;;;20.80;27.00;;;;;;5036576;28;46482;-65
2022/07/14 00:11:11;;;;;;;7.90;1.60;;;20.80;26.90;;;;;;5038007;28;46417;-61
2022/07/14 00:13:37;;;;;;;3.77;1.50;;;20.70;26.80;;;;;;5037447;28;46455;-64
2022/07/14 00:16:04;;;;;;;3.53;1.53;;;20.70;26.90;;;;;;5038140;28;46481;-63
2022/07/14 00:18:30;;;;;;;3.63;1.40;;;20.70;27.00;;;;;;5038607;28;46440;-64
2022/07/14 00:20:55;;;;;;;5.07;1.70;;;20.60;27.00;;;;;;5039021;28;47550;-62
2022/07/14 00:23:24;;;;;;;6.83;1.60;;;20.60;27.10;;;;;;5038080;28;47292;-62
2022/07/14 00:25:50;;;;;;;2.57;1.60;;;20.60;27.10;;;;;;5037894;28;46536;-63
2022/07/14 00:28:18;;;;;;;5.23;1.70;;;20.60;27.10;;;;;;5039580;28;46406;-62
2022/07/14 00:30:45;;;;;;;3.63;2.07;;;20.60;26.90;;;;;;5037947;28;46563;-61
2022/07/14 00:33:11;;;;;;;2.60;1.50;;;20.70;26.80;;;;;;5039271;28;47176;-62
2022/07/14 00:35:36;;;;;;;6.53;1.70;;;20.60;26.90;;;;;;5038234;28;46515;-63
2022/07/14 00:38:04;;;;;;;4.00;2.00;;;20.60;27.00;;;;;;5038543;28;46706;-62
2022/07/14 00:40:30;;;;;;;7.73;1.70;;;20.60;26.90;;;;;;5038568;28;46391;-62
2022/07/14 00:42:55;;;;;;;5.73;1.90;;;20.60;27.00;;;;;;5038055;28;46129;-65
2022/07/14 00:45:21;;;;;;;3.83;1.70;;;20.60;27.00;;;;;;5038435;28;45885;-62
2022/07/14 00:47:48;;;;;;;3.97;1.40;;;20.60;27.10;;;;;;5039180;28;46434;-62
2022/07/14 00:50:15;;;;;;;3.10;1.67;;;20.60;27.10;;;;;;5037931;28;46524;-61
2022/07/14 00:52:42;;;;;;;3.70;1.60;;;20.60;27.10;;;;;;5037571;28;46239;-62
2022/07/14 00:55:09;;;;;;;3.90;1.97;;;20.60;27.20;;;;;;5035043;28;46393;-62
2022/07/14 00:57:36;;;;;;;4.57;1.60;;;20.60;27.20;;;;;;5034595;28;46375;-64
2022/07/14 01:00:03;;;;;;;3.03;1.43;;;20.60;27.10;;;;;;5034159;28;46591;-61
2022/07/14 01:02:29;;;;;;;5.03;2.00;;;20.60;27.10;;;;;;5038690;28;47072;-61
2022/07/14 01:04:54;;;;;;;4.77;1.60;;;20.60;27.00;;;;;;5035623;28;46413;-61
2022/07/14 01:07:20;;;;;;;6.10;1.57;;;20.60;26.90;;;;;;5035768;28;46385;-61
2022/07/14 01:09:46;;;;;;;2.60;1.40;;;20.50;26.90;;;;;;5035187;28;46393;-61
2022/07/14 01:12:12;;;;;;;4.10;1.83;;;20.50;26.90;;;;;;5037832;28;46384;-61
2022/07/14 01:14:38;;;;;;;6.63;1.87;;;20.40;27.00;;;;;;5036026;28;46469;-63
2022/07/14 01:17:08;;;;;;;3.00;1.53;;;20.30;27.10;;;;;;5036967;28;46458;-64
2022/07/14 01:19:34;;;;;;;6.13;1.80;;;20.20;27.20;;;;;;5035729;28;46419;-63
2022/07/14 01:22:00;;;;;;;5.00;1.70;;;20.20;27.30;;;;;;5034899;28;46264;-62
2022/07/14 01:24:27;;;;;;;5.00;2.20;;;20.10;27.40;;;;;;5038079;28;46462;-61
2022/07/14 01:26:53;;;;;;;3.30;1.50;;;20.10;27.40;;;;;;5035636;28;46441;-65
2022/07/14 01:29:19;;;;;;;4.73;1.47;;;20.00;27.40;;;;;;5035745;28;46768;-64
2022/07/14 01:31:45;;;;;;;3.83;1.90;;;20.00;27.40;;;;;;5037083;28;47216;-63
2022/07/14 01:34:11;;;;;;;6.40;1.90;;;20.00;27.50;;;;;;5039036;28;46415;-64
2022/07/14 01:36:36;;;;;;;5.23;1.93;;;20.00;27.40;;;;;;5041576;28;46596;-63
2022/07/14 01:39:04;;;;;;;5.80;1.90;;;20.00;27.30;;;;;;5039141;28;47047;-62
2022/07/14 01:41:30;;;;;;;3.13;1.83;;;20.00;27.40;;;;;;5042142;28;46733;-63
2022/07/14 01:43:56;;;;;;;3.63;1.70;;;20.00;27.50;;;;;;5040326;28;46403;-62
2022/07/14 01:46:22;;;;;;;3.87;1.60;;;20.00;28.50;;;;;;5039800;28;46473;-64
2022/07/14 01:48:48;;;;;;;2.60;1.70;;;19.90;27.70;;;;;;5038572;28;46452;-64
2022/07/14 01:51:14;;;;;;;5.47;1.87;;;19.90;27.80;;;;;;5040319;28;46247;-63
2022/07/14 01:53:41;;;;;;;4.20;1.50;;;19.80;27.90;;;;;;5040142;28;46429;-62
2022/07/14 01:56:07;;;;;;;5.53;1.50;;;19.80;27.90;;;;;;5040678;28;46333;-64
2022/07/14 01:58:33;;;;;;;6.60;1.97;;;19.80;27.90;;;;;;5036192;28;46574;-64
2022/07/14 02:03:44;;;;;;;4.50;1.60;;;19.80;27.70;;;;;;5039619;28;46413;-62
2022/07/14 02:06:10;;;;;;;3.83;1.30;;;19.90;27.40;;;;;;5039398;28;46425;-62
2022/07/14 02:08:36;;;;;;;3.70;1.77;;;19.80;27.40;;;;;;5039132;28;46445;-63
2022/07/14 02:13:46;;;;;;;3.50;1.60;;;19.80;27.40;;;;;;5040189;28;46488;-64
2022/07/14 02:16:12;;;;;;;3.60;1.37;;;19.80;27.60;;;;;;5040687;28;46493;-65
2022/07/14 02:18:37;;;;;;;3.70;1.83;;;19.70;27.70;;;;;;5039448;28;46683;-62
2022/07/14 02:21:03;;;;;;;8.23;1.83;;;19.60;27.90;;;;;;5039337;28;47220;-62
2022/07/14 02:23:29;;;;;;;7.10;2.50;;;19.50;28.00;;;;;;5040498;28;46501;-62
2022/07/14 02:25:54;;;;;;;5.50;3.33;;;19.50;28.20;;;;;;5040450;28;46050;-63
2022/07/14 02:28:20;;;;;;;5.57;3.03;;;19.50;28.20;;;;;;5039738;28;46431;-62
2022/07/14 02:30:46;;;;;;;7.87;2.27;;;19.50;28.10;;;;;;5036793;28;47080;-61
2022/07/14 02:33:12;;;;;;;4.97;2.47;;;19.50;28.10;;;;;;5039458;28;46454;-62
2022/07/14 02:35:38;;;;;;;5.20;3.60;;;19.50;28.00;;;;;;5039958;28;46498;-64
2022/07/14 02:38:04;;;;;;;5.30;3.60;;;19.50;28.00;;;;;;5037191;28;46667;-64
2022/07/14 02:40:29;;;;;;;5.10;3.60;;;19.60;28.00;;;;;;5036261;28;47055;-64
2022/07/14 02:42:55;;;;;;;4.80;3.60;;;19.60;27.90;;;;;;5038285;28;47021;-61
2022/07/14 02:45:21;;;;;;;7.63;2.57;;;19.70;27.90;;;;;;5037121;28;46486;-62
2022/07/14 02:47:47;;;;;;;7.33;2.70;;;19.80;28.70;;;;;;5040082;28;46037;-62
2022/07/14 02:50:13;;;;;;;2.90;1.90;;;19.70;27.70;;;;;;5034967;28;47954;-62
2022/07/14 02:52:39;;;;;;;7.07;2.73;;;19.70;27.70;;;;;;5039187;28;46370;-62
2022/07/14 02:55:05;;;;;;;6.90;3.37;;;19.80;27.70;;;;;;5038802;28;45895;-62
2022/07/14 02:57:31;;;;;;;6.77;3.00;;;19.70;27.80;;;;;;5039131;28;46363;-62
2022/07/14 02:59:58;;;;;;;9.03;3.70;;;19.70;27.90;;;;;;5037658;28;46178;-61
2022/07/14 03:02:24;;;;;;;9.33;2.70;;;19.70;28.00;;;;;;5037526;28;46448;-61
2022/07/14 03:04:50;;;;;;;5.50;2.87;;;19.70;28.20;;;;;;5040849;28;46449;-60
2022/07/14 03:07:15;;;;;;;7.10;3.97;;;19.60;28.30;;;;;;5040372;28;46703;-61
2022/07/14 03:09:41;;;;;;;8.20;4.37;;;19.60;28.40;;;;;;5038225;28;47231;-59
2022/07/14 03:12:07;;;;;;;7.53;3.97;;;19.50;29.30;;;;;;5039705;28;46555;-62
2022/07/14 03:14:32;;;;;;;7.77;4.50;;;19.50;28.70;;;;;;5039789;28;46449;-60
2022/07/14 03:16:58;;;;;;;11.30;5.67;;;19.40;28.70;;;;;;5041074;28;46097;-61
2022/07/14 03:19:23;;;;;;;5.20;3.43;;;19.30;28.90;;;;;;5039101;28;47790;-62
2022/07/14 03:21:49;;;;;;;3.30;1.80;;;19.30;29.00;;;;;;5039835;28;46443;-64
2022/07/14 03:24:15;;;;;;;3.77;2.00;;;19.20;29.10;;;;;;5039894;28;45971;-63
2022/07/14 03:26:40;;;;;;;15.40;2.23;;;19.20;29.10;;;;;;5040087;28;46385;-63
2022/07/14 03:29:07;;;;;;;7.37;4.20;;;19.20;29.20;;;;;;5038878;28;46418;-61
2022/07/14 03:31:34;;;;;;;6.97;3.93;;;19.20;29.10;;;;;;5038688;28;46373;-64
2022/07/14 03:33:59;;;;;;;5.50;3.57;;;19.20;29.00;;;;;;5040463;28;46416;-64
2022/07/14 03:36:25;;;;;;;4.43;2.30;;;19.20;28.90;;;;;;5040721;28;46488;-61
2022/07/14 03:38:51;;;;;;;6.97;1.83;;;19.20;28.90;;;;;;5039435;28;46532;-60
2022/07/14 03:41:17;;;;;;;4.33;1.80;;;19.20;28.90;;;;;;5039416;28;45870;-62
2022/07/14 03:43:43;;;;;;;6.10;1.70;;;19.10;29.10;;;;;;5039521;28;45862;-62
2022/07/14 03:46:09;;;;;;;7.33;2.00;;;19.00;29.30;;;;;;5040793;28;45942;-60
2022/07/14 03:48:35;;;;;;;7.70;1.90;;;18.90;29.80;;;;;;5038885;28;47030;-64
2022/07/14 03:51:01;;;;;;;2.47;1.50;;;18.80;30.20;;;;;;5035052;28;46399;-62
2022/07/14 03:53:29;;;;;;;6.50;2.10;;;18.60;30.60;;;;;;5040003;28;46418;-63
2022/07/14 03:55:56;;;;;;;5.10;2.00;;;18.60;31.00;;;;;;5037886;28;46669;-62
2022/07/14 03:58:22;;;;;;;5.00;2.53;;;18.50;31.60;;;;;;5037866;28;47154;-63
2022/07/14 04:00:48;;;;;;;3.83;1.87;;;18.50;32.00;;;;;;5039457;28;45847;-62
2022/07/14 04:03:14;;;;;;;5.50;2.10;;;18.50;32.60;;;;;;5038628;28;46445;-62
2022/07/14 04:05:39;;;;;;;5.40;1.93;;;18.60;32.80;;;;;;5038109;28;46404;-62
2022/07/14 04:08:05;;;;;;;4.53;2.17;;;18.70;32.60;;;;;;5037938;28;46600;-63
2022/07/14 04:10:31;;;;;;;3.33;1.90;;;18.80;32.00;;;;;;5037703;28;46797;-63
2022/07/14 04:12:56;;;;;;;3.67;2.00;;;19.10;31.50;;;;;;5038003;28;46478;-62
2022/07/14 04:15:23;;;;;;;4.53;1.87;;;19.30;30.90;;;;;;5038600;28;46544;-64
2022/07/14 04:17:49;;;;;;;3.17;1.70;;;19.50;30.30;;;;;;5036849;28;46609;-62
2022/07/14 04:20:16;;;;;;;5.00;1.80;;;19.60;30.90;;;;;;5036237;28;46368;-63
2022/07/14 04:22:42;;;;;;;2.87;1.53;;;19.70;29.50;;;;;;5037390;28;46381;-63
2022/07/14 04:25:09;;;;;;;2.80;1.70;;;19.80;29.20;;;;;;5039026;28;46371;-62
2022/07/14 04:27:35;;;;;;;3.20;1.80;;;19.90;28.70;;;;;;5035723;28;46354;-63
2022/07/14 04:30:00;;;;;;;4.87;1.90;;;20.00;28.40;;;;;;5036637;28;46403;-63
2022/07/14 04:32:27;;;;;;;4.20;1.73;;;20.20;27.90;;;;;;5039195;28;46347;-62
2022/07/14 04:34:52;;;;;;;3.37;1.70;;;20.50;27.30;;;;;;5036738;28;46459;-62
2022/07/14 04:37:18;;;;;;;2.80;1.40;;;20.70;26.80;;;;;;5038522;28;46338;-62
2022/07/14 04:39:44;;;;;;;6.73;1.60;;;20.90;26.20;;;;;;5036094;28;46468;-65
2022/07/14 04:42:09;;;;;;;4.80;1.50;;;21.00;25.90;;;;;;5039285;28;46698;-63
2022/07/14 04:44:35;;;;;;;3.57;1.50;;;21.10;25.60;;;;;;5038907;28;45896;-62
2022/07/14 04:47:01;;;;;;;6.13;1.40;;;21.30;25.40;;;;;;5039272;28;46457;-61
2022/07/14 04:52:10;;;;;;;6.67;1.80;;;21.60;24.60;;;;;;5036172;28;46655;-63
2022/07/14 04:54:36;;;;;;;3.03;1.50;;;21.50;24.70;;;;;;5036993;28;46418;-61
2022/07/14 04:57:06;;;;;;;5.27;1.60;;;21.50;24.50;;;;;;5035418;28;48232;-62
2022/07/14 04:59:32;;;;;;;3.10;1.67;;;21.60;24.40;;;;;;5038248;28;46427;-63
2022/07/14 05:01:57;;;;;;;2.70;1.37;;;21.90;23.80;;;;;;5033034;28;46481;-63
2022/07/14 05:04:23;;;;;;;2.47;1.33;;;23.50;23.00;;;;;;5037916;28;46821;-62
2022/07/14 05:06:49;;;;;;;8.70;1.67;;;25.40;20.40;;;;;;5034990;28;45907;-62
2022/07/14 05:09:19;;;;;;;4.53;1.90;;;27.10;17.50;;;;;;5038349;28;45794;-63
2022/07/14 05:11:45;;;;;;;10.40;1.70;;;28.50;14.90;;;;;;5038167;28;46697;-62
2022/07/14 05:14:11;;;;;;;5.67;2.17;;;28.40;14.50;;;;;;5039032;28;46431;-61
2022/07/14 05:16:38;;;;;;;5.63;1.83;;;28.40;14.40;;;;;;5042256;28;46512;-63
2022/07/14 05:19:04;;;;;;;9.83;2.10;;;29.70;12.70;;;;;;5036944;28;46485;-64
2022/07/14 05:21:30;;;;;;;7.87;1.83;;;30.70;11.00;;;;;;5041654;28;46418;-63
2022/07/14 05:23:56;;;;;;;7.10;2.20;;;31.80;8.90;;;;;;5044851;28;46335;-62
2022/07/14 05:26:22;;;;;;;5.13;1.93;;;32.80;7.60;;;;;;5041049;28;46395;-61
2022/07/14 05:28:48;;;;;;;6.10;1.50;;;33.60;6.30;;;;;;5038025;28;46527;-63
2022/07/14 05:31:13;;;;;;;4.33;1.50;;;34.10;5.20;;;;;;5039607;28;46573;-64
2022/07/14 05:33:39;;;;;;;6.73;1.60;;;33.60;5.20;;;;;;5042267;28;46504;-63
2022/07/14 05:36:05;;;;;;;3.97;2.60;;;33.70;5.00;;;;;;5038731;28;46990;-62
2022/07/14 05:38:31;;;;;;;5.23;1.90;;;33.30;4.80;;;;;;5041101;28;46371;-63
2022/07/14 05:40:59;;;;;;;3.50;1.57;;;33.40;4.40;;;;;;5040017;28;46450;-62
2022/07/14 05:43:25;;;;;;;7.43;1.90;;;34.20;3.50;;;;;;5040149;28;46382;-61
2022/07/14 05:45:50;;;;;;;4.00;1.60;;;35.00;2.40;;;;;;5039391;28;47035;-62
2022/07/14 05:48:16;;;;;;;2.73;1.50;;;35.70;1.20;;;;;;5040688;28;46397;-63
2022/07/14 05:50:42;;;;;;;4.17;1.67;;;36.10;1.00;;;;;;5039039;28;46531;-62
2022/07/14 05:53:07;;;;;;;2.43;1.47;;;36.40;1.00;;;;;;5041667;28;46448;-62
2022/07/14 05:55:33;;;;;;;4.30;1.70;;;36.90;1.00;;;;;;5040070;28;46390;-63
2022/07/14 05:57:58;;;;;;;2.67;1.50;;;37.10;1.00;;;;;;5040578;28;46392;-62
2022/07/14 06:00:24;;;;;;;4.70;1.90;;;36.90;1.00;;;;;;5041285;28;46574;-61
2022/07/14 06:02:50;;;;;;;3.40;1.50;;;35.80;1.00;;;;;;5039748;28;46644;-62
2022/07/14 06:05:15;;;;;;;9.03;1.97;;;34.50;2.50;;;;;;5041085;28;48056;-62
2022/07/14 06:07:41;;;;;;;6.30;1.50;;;33.90;3.40;;;;;;5039803;28;46332;-62
2022/07/14 06:10:10;;;;;;;4.40;1.50;;;33.30;4.70;;;;;;5040372;28;46362;-62
2022/07/14 06:12:39;;;;;;;2.60;1.50;;;32.60;5.20;;;;;;5040079;28;46956;-61
2022/07/14 06:15:07;;;;;;;2.83;1.37;;;32.30;5.80;;;;;;5040736;28;47135;-61
2022/07/14 06:17:33;;;;;;;3.60;1.47;;;32.00;6.10;;;;;;5040469;28;46438;-61
2022/07/14 06:20:06;;;;;;;7.70;1.47;;;31.90;6.30;;;;;;5038380;28;46366;-61
2022/07/14 06:22:38;;;;;;;8.23;1.40;;;32.00;5.60;;;;;;5041389;28;46446;-61
2022/07/14 06:25:04;;;;;;;6.33;1.67;;;31.90;5.70;;;;;;5039107;28;46434;-60
2022/07/14 06:27:30;;;;;;;4.67;1.53;;;31.40;5.70;;;;;;5041586;28;46445;-62
2022/07/14 06:29:56;;;;;;;9.30;1.33;;;31.10;6.10;;;;;;5035808;28;46672;-63
2022/07/14 06:32:23;;;;;;;4.20;1.40;;;30.80;6.60;;;;;;5040430;28;46309;-63
2022/07/14 06:34:49;;;;;;;10.03;2.10;;;30.50;6.40;;;;;;5039264;28;46455;-62
2022/07/14 06:37:15;;;;;;;6.80;1.67;;;30.30;6.30;;;;;;5040282;28;46402;-63
2022/07/14 06:39:41;;;;;;;8.93;2.03;;;30.10;6.70;;;;;;5039471;28;46482;-62
2022/07/14 06:42:07;;;;;;;12.30;1.77;;;30.10;7.20;;;;;;5040601;28;46385;-62
2022/07/14 06:44:33;;;;;;;4.93;2.03;;;30.20;7.30;;;;;;5039647;28;47222;-62
2022/07/14 06:46:59;;;;;;;9.80;2.00;;;30.20;7.20;;;;;;5040232;28;46406;-63
2022/07/14 06:49:25;;;;;;;6.13;1.77;;;30.00;7.40;;;;;;5040097;28;46414;-62
2022/07/14 06:51:51;;;;;;;3.33;1.30;;;29.80;7.70;;;;;;5041380;28;46406;-65
2022/07/14 06:54:17;;;;;;;6.13;1.83;;;29.50;8.20;;;;;;5038628;28;46632;-63
2022/07/14 06:56:43;;;;;;;2.53;1.40;;;29.40;8.40;;;;;;5038547;28;46370;-61
2022/07/14 06:59:08;;;;;;;9.30;2.00;;;29.20;8.50;;;;;;5036628;28;46517;-61
2022/07/14 07:01:34;;;;;;;5.30;1.50;;;29.00;8.50;;;;;;5037414;28;46470;-61
2022/07/14 07:04:00;;;;;;;5.30;1.70;;;28.80;8.80;;;;;;5038227;28;47437;-62
2022/07/14 07:06:44;;;;;;;5.10;1.97;;;29.00;8.80;;;;;;5038429;28;46340;-62
2022/07/14 07:09:11;;;;;;;3.90;1.97;;;29.40;8.70;;;;;;5035354;28;46390;-63
2022/07/14 07:11:36;;;;;;;6.20;1.70;;;29.80;8.30;;;;;;5039392;28;46033;-63
2022/07/14 07:14:02;;;;;;;5.67;1.90;;;30.10;7.50;;;;;;5034024;28;47247;-62
2022/07/14 07:16:28;;;;;;;5.70;2.20;;;30.30;7.20;;;;;;5036401;28;46437;-64
2022/07/14 07:18:54;;;;;;;11.13;1.90;;;30.40;7.10;;;;;;5036135;28;46500;-63
2022/07/14 07:21:20;;;;;;;4.97;1.80;;;30.30;7.10;;;;;;5036096;28;46567;-63
2022/07/14 07:23:47;;;;;;;5.30;1.57;;;30.10;7.30;;;;;;5038984;28;47988;-62
2022/07/14 07:26:14;;;;;;;5.37;1.90;;;29.90;7.00;;;;;;5039508;28;46402;-65
2022/07/14 07:28:40;;;;;;;11.03;1.97;;;29.80;7.20;;;;;;5038631;28;46355;-62
2022/07/14 07:31:05;;;;;;;4.63;1.70;;;29.80;7.30;;;;;;5035326;28;46438;-62
2022/07/14 07:33:32;;;;;;;8.97;1.77;;;29.80;7.30;;;;;;5037708;28;46855;-62
2022/07/14 07:35:59;;;;;;;6.53;1.60;;;29.90;7.10;;;;;;5035159;28;45834;-62
2022/07/14 07:38:25;;;;;;;4.53;1.40;;;29.80;6.80;;;;;;5035466;28;46717;-63
2022/07/14 07:40:53;;;;;;;7.83;1.63;;;29.40;7.10;;;;;;5037645;28;46703;-63
2022/07/14 07:43:21;;;;;;;6.07;1.70;;;29.00;7.60;;;;;;5036498;28;48025;-64
2022/07/14 07:45:49;;;;;;;3.10;1.50;;;28.60;7.90;;;;;;5037386;28;46374;-62
2022/07/14 07:48:15;;;;;;;7.63;1.90;;;28.40;8.50;;;;;;5033450;28;46966;-62
2022/07/14 07:50:43;;;;;;;4.67;1.60;;;28.60;8.70;;;;;;5036844;28;46541;-63
2022/07/14 07:53:09;;;;;;;4.13;1.43;;;28.80;8.80;;;;;;5037385;28;46917;-64
2022/07/14 07:55:35;;;;;;;3.40;1.70;;;29.20;8.30;;;;;;5039683;28;46435;-64
2022/07/14 07:58:01;;;;;;;6.60;1.67;;;29.40;8.20;;;;;;5038080;28;46778;-64
2022/07/14 08:00:27;;;;;;;3.73;1.40;;;29.60;8.00;;;;;;5037993;28;46406;-63
2022/07/14 08:02:53;;;;;;;5.10;1.53;;;29.90;7.50;;;;;;5037880;28;47311;-62
2022/07/14 08:05:22;;;;;;;3.70;1.73;;;30.10;6.70;;;;;;5036993;28;46377;-62
2022/07/14 08:07:48;;;;;;;4.87;1.60;;;30.20;7.40;;;;;;5036290;28;46410;-61
2022/07/14 08:10:15;;;;;;;3.40;1.20;;;30.40;6.30;;;;;;5037011;28;46446;-62
2022/07/14 08:12:44;;;;;;;3.40;1.60;;;30.60;6.50;;;;;;5037621;28;46724;-62
2022/07/14 08:15:11;;;;;;;15.83;1.90;;;30.90;6.60;;;;;;5038877;28;46547;-62
2022/07/14 08:17:36;;;;;;;8.70;1.80;;;30.90;5.90;;;;;;5039510;28;46498;-63
2022/07/14 08:20:05;;;;;;;7.10;1.83;;;30.70;5.90;;;;;;5036832;28;46548;-64
2022/07/14 08:22:30;;;;;;;9.93;1.50;;;30.80;5.70;;;;;;5037976;28;48025;-64
2022/07/14 08:24:57;;;;;;;4.57;1.40;;;30.90;5.70;;;;;;5038150;28;46458;-63
2022/07/14 08:27:23;;;;;;;4.50;1.50;;;31.10;5.30;;;;;;5037582;28;46376;-63
2022/07/14 08:29:50;;;;;;;4.30;1.50;;;31.00;5.20;;;;;;5036773;28;46421;-62
2022/07/14 08:32:17;;;;;;;4.70;1.40;;;31.20;5.00;;;;;;5038128;28;47228;-63
2022/07/14 08:34:43;;;;;;;8.77;2.13;;;31.40;4.50;;;;;;5036416;28;46500;-63
2022/07/14 08:37:09;;;;;;;6.97;1.97;;;31.60;3.70;;;;;;5042605;28;46381;-64
2022/07/14 08:39:35;;;;;;;4.97;1.47;;;31.50;3.40;;;;;;5043423;28;46458;-62
2022/07/14 08:42:02;;;;;;;15.40;2.03;;;31.70;3.40;;;;;;5035504;28;47167;-62
2022/07/14 08:44:29;;;;;;;12.33;1.73;;;31.90;3.10;;;;;;5036543;28;46456;-63
2022/07/14 08:46:55;;;;;;;2.90;1.30;;;32.00;2.70;;;;;;5036074;28;46404;-65
2022/07/14 08:49:22;;;;;;;2.10;1.10;;;32.20;2.10;;;;;;5037213;28;46016;-65
2022/07/14 08:51:49;;;;;;;2.10;1.10;;;32.20;2.10;;;;;;5035397;28;46781;-63
2022/07/14 08:54:16;;;;;;;2.53;1.20;;;32.10;1.50;;;;;;5036410;28;45895;-64
2022/07/14 08:56:42;;;;;;;3.23;1.83;;;31.90;1.00;;;;;;5036322;28;46473;-63
2022/07/14 08:59:09;;;;;;;3.15;1.40;;;31.90;1.20;;;;;;5036550;28;46516;-63
2022/07/14 09:01:36;;;;;;;3.50;1.50;;;31.90;2.10;;;;;;5035002;28;47035;-62
2022/07/14 09:04:02;;;;;;;2.40;1.20;;;32.20;1.00;;;;;;5035830;28;46445;-64
2022/07/14 09:06:48;;;;;;;4.47;1.50;;;32.50;1.00;;;;;;5037620;28;46303;-62
2022/07/14 09:09:18;;;;;;;7.60;1.80;;;32.60;1.00;;;;;;5036606;28;46449;-63
2022/07/14 09:11:51;;;;;;;4.10;1.90;;;32.90;1.00;;;;;;5035908;28;47210;-64
2022/07/14 09:14:17;;;;;;;3.40;1.30;;;33.00;1.00;;;;;;5036452;28;46504;-64
2022/07/14 09:16:43;;;;;;;5.73;1.50;;;32.80;1.00;;;;;;5035045;28;46413;-64
2022/07/14 09:19:15;;;;;;;26.70;2.43;;;32.70;1.00;;;;;;5036600;28;46505;-64
2022/07/14 09:21:46;;;;;;;7.00;1.40;;;32.80;1.00;;;;;;5037122;28;46323;-63
2022/07/14 09:24:14;;;;;;;4.47;1.30;;;32.70;1.00;;;;;;5036524;28;46485;-62
2022/07/14 09:26:48;;;;;;;3.40;1.10;;;32.70;1.00;;;;;;5037820;28;46470;-62
2022/07/14 09:29:18;;;;;;;7.00;1.40;;;32.50;1.00;;;;;;5036170;28;46607;-65
2022/07/14 09:31:43;;;;;;;2.70;1.20;;;32.50;1.00;;;;;;5036358;28;46541;-64
2022/07/14 09:34:22;;;;;;;6.17;1.50;;;32.70;1.00;;;;;;5038369;28;46762;-65
2022/07/14 09:36:48;;;;;;;2.10;1.10;;;32.70;1.00;;;;;;5035150;28;46449;-64
2022/07/14 09:39:15;;;;;;;2.87;1.10;;;32.70;1.00;;;;;;5036855;28;46705;-64
2022/07/14 09:41:53;;;;;;;2.30;1.20;;;32.60;1.00;;;;;;5035593;28;46641;-66
2022/07/14 09:44:20;;;;;;;4.37;1.30;;;32.60;1.00;;;;;;5037549;28;46506;-63
2022/07/14 09:46:58;;;;;;;4.90;1.10;;;32.60;1.00;;;;;;5037247;28;46505;-63
2022/07/14 09:49:26;;;;;;;3.40;1.23;;;32.90;1.00;;;;;;5037886;28;46574;-65
2022/07/14 09:51:54;;;;;;;4.80;1.70;;;32.80;1.00;;;;;;5034830;28;47408;-62
2022/07/14 09:54:45;;;;;;;2.97;1.43;;;32.70;1.00;;;;;;5033776;28;46581;-61
2022/07/14 09:57:13;;;;;;;4.43;1.20;;;32.70;1.00;;;;;;5038633;28;46597;-60
2022/07/14 09:59:53;;;;;;;3.30;1.30;;;32.70;1.00;;;;;;5034764;28;46739;-63
2022/07/14 10:02:26;;;;;;;3.83;1.13;;;32.70;1.00;;;;;;5038913;28;46384;-63
2022/07/14 10:04:54;;;;;;;2.20;1.30;;;32.70;1.00;;;;;;5039254;28;46327;-62
2022/07/14 10:07:20;;;;;;;2.90;1.40;;;33.00;1.00;;;;;;5037523;28;46637;-63
2022/07/14 10:09:55;;;;;;;3.50;1.20;;;33.10;1.00;;;;;;5040283;28;46540;-65
2022/07/14 10:12:23;;;;;;;4.73;1.30;;;33.20;1.00;;;;;;5037129;28;46468;-64
2022/07/14 10:14:50;;;;;;;4.50;1.60;;;33.00;1.00;;;;;;5040033;28;46597;-64
2022/07/14 10:17:17;;;;;;;9.07;1.23;;;32.90;1.00;;;;;;5038821;28;46749;-62
2022/07/14 10:19:44;;;;;;;7.30;1.70;;;33.10;1.00;;;;;;5039923;28;46318;-64
2022/07/14 10:22:10;;;;;;;3.70;1.40;;;33.00;1.00;;;;;;5041608;28;46555;-65
2022/07/14 10:24:40;;;;;;;23.43;1.57;;;33.00;1.00;;;;;;5039433;28;46443;-62
2022/07/14 10:27:06;;;;;;;37.47;3.20;;;33.20;1.00;;;;;;5040520;28;46417;-63
2022/07/14 10:29:32;;;;;;;4.03;1.20;;;33.10;1.00;;;;;;5037451;28;45973;-64
2022/07/14 10:32:30;;;;;;;2.93;1.20;;;33.30;1.00;;;;;;5040276;28;46425;-62
2022/07/14 10:35:12;;;;;;;3.17;1.07;;;33.40;1.00;;;;;;5036816;28;46691;-63
2022/07/14 10:38:27;;;;;;;2.70;1.50;;;33.50;1.00;;;;;;5039150;28;46322;-62
2022/07/14 10:41:07;;;;;;;5.70;1.20;;;33.30;1.00;;;;;;5012595;28;46369;-62
2022/07/14 10:44:00;;;;;;;4.50;1.40;;;33.00;1.00;;;;;;5039248;28;46645;-62
2022/07/14 10:46:43;;;;;;;5.23;1.50;;;32.80;1.00;;;;;;5038487;28;46736;-65
2022/07/14 10:49:10;;;;;;;2.53;1.30;;;32.80;1.00;;;;;;5038020;28;46426;-64
2022/07/14 10:51:43;;;;;;;4.13;1.20;;;32.70;1.00;;;;;;5040541;28;46435;-64
2022/07/14 10:54:11;;;;;;;2.63;1.20;;;32.70;1.00;;;;;;5040146;28;47925;-65
2022/07/14 10:56:42;;;;;;;3.70;1.17;;;32.60;1.00;;;;;;5039453;28;46633;-63
2022/07/14 10:59:25;;;;;;;4.93;1.40;;;32.70;1.00;;;;;;5040228;28;46306;-65
2022/07/14 11:02:13;;;;;;;3.70;1.10;;;32.90;1.00;;;;;;5039617;28;46663;-63
2022/07/14 11:05:03;;;;;;;2.20;1.40;;;33.10;1.00;;;;;;5037039;28;46455;-64
2022/07/14 11:07:55;;;;;;;4.73;1.10;;;33.20;1.00;;;;;;5036790;28;46468;-67
2022/07/14 11:10:20;;;;;;;3.70;1.10;;;33.40;1.00;;;;;;5039964;28;46401;-64
2022/07/14 11:13:04;;;;;;;2.73;1.30;;;33.60;1.00;;;;;;5040125;28;46911;-63
2022/07/14 11:15:58;;;;;;;4.60;1.40;;;33.60;1.00;;;;;;5036113;28;46521;-62
2022/07/14 11:18:25;;;;;;;4.00;1.30;;;33.70;1.00;;;;;;5036948;28;46378;-62
2022/07/14 11:21:07;;;;;;;15.47;1.37;;;33.70;1.00;;;;;;5039308;28;45866;-62
2022/07/14 11:23:51;;;;;;;7.80;1.20;;;33.60;1.00;;;;;;5037375;28;45990;-64
2022/07/14 11:26:44;;;;;;;5.30;1.37;;;33.60;1.00;;;;;;5039153;28;46563;-63
2022/07/14 11:29:11;;;;;;;2.40;1.30;;;33.80;1.00;;;;;;5033795;28;46553;-64
2022/07/14 11:31:51;;;;;;;2.20;1.27;;;33.90;1.00;;;;;;5039933;28;46474;-63
2022/07/14 11:37:06;;;;;;;7.20;1.60;;;34.00;1.00;;;;;;5042842;28;46662;-63
2022/07/14 11:39:40;;;;;;;3.07;1.60;;;34.10;1.00;;;;;;5038767;28;46103;-63
2022/07/14 11:42:11;;;;;;;5.77;1.40;;;34.20;1.00;;;;;;5038336;28;46507;-63
2022/07/14 11:44:40;;;;;;;14.30;1.60;;;34.10;1.00;;;;;;5039941;28;46318;-63
2022/07/14 11:47:24;;;;;;;5.73;1.30;;;34.10;1.00;;;;;;5037491;28;46441;-64
2022/07/14 11:49:59;;;;;;;2.73;1.50;;;34.10;1.00;;;;;;5039142;28;46728;-64
2022/07/14 11:52:26;;;;;;;3.93;1.40;;;34.20;1.00;;;;;;5039915;28;46434;-63
2022/07/14 11:54:53;;;;;;;10.57;1.33;;;34.10;1.00;;;;;;5037794;28;46648;-64
2022/07/14 11:57:21;;;;;;;1.70;0.90;;;33.80;1.00;;;;;;5038127;28;46588;-64
2022/07/14 11:59:47;;;;;;;4.00;1.40;;;33.50;1.00;;;;;;5035229;28;46517;-63
2022/07/14 12:02:15;;;;;;;14.67;1.50;;;33.40;1.00;;;;;;5038639;28;46397;-64
2022/07/14 12:05:08;;;;;;;6.90;1.30;;;33.20;1.00;;;;;;5038142;28;46043;-64
2022/07/14 12:07:48;;;;;;;2.30;1.30;;;33.00;1.00;;;;;;5033978;28;47502;-63
2022/07/14 12:10:32;;;;;;;6.23;1.37;;;33.20;1.00;;;;;;5037670;28;46409;-64
2022/07/14 12:12:58;;;;;;;4.00;1.20;;;33.30;1.00;;;;;;5037416;28;46426;-63
2022/07/14 12:15:26;;;;;;;4.10;1.10;;;33.50;1.00;;;;;;5037107;28;46298;-65
2022/07/14 12:17:53;;;;;;;7.33;1.67;;;33.40;1.00;;;;;;5036701;28;46955;-64
2022/07/14 12:20:21;;;;;;;2.03;1.10;;;33.20;1.00;;;;;;5037684;28;46453;-64
2022/07/14 12:22:55;;;;;;;3.73;1.30;;;33.10;1.00;;;;;;5037695;28;46271;-64
2022/07/14 12:25:32;;;;;;;8.97;1.50;;;33.10;1.00;;;;;;5038800;28;46507;-64
2022/07/14 12:28:04;;;;;;;3.10;1.43;;;33.10;1.00;;;;;;5037340;28;47138;-62
2022/07/14 12:30:51;;;;;;;4.93;1.53;;;33.10;1.00;;;;;;5037960;28;46315;-63
2022/07/14 12:33:27;;;;;;;2.50;1.33;;;33.30;1.00;;;;;;5040989;28;46634;-65
2022/07/14 12:35:56;;;;;;;4.17;1.23;;;33.50;1.00;;;;;;5037144;28;46620;-63
2022/07/14 12:38:23;;;;;;;2.70;1.20;;;33.60;1.00;;;;;;5037687;28;46452;-63
2022/07/14 12:40:54;;;;;;;3.90;1.50;;;33.40;1.00;;;;;;5039034;28;46461;-63
2022/07/14 12:43:21;;;;;;;2.33;1.20;;;33.60;1.00;;;;;;5038086;28;46422;-64
2022/07/14 12:46:02;;;;;;;3.13;1.20;;;33.70;1.00;;;;;;5038854;28;46501;-64
2022/07/14 12:48:32;;;;;;;13.95;1.65;;;33.60;1.00;;;;;;5037309;28;47125;-62
2022/07/14 12:51:21;;;;;;;9.17;1.70;;;33.50;1.00;;;;;;5036758;28;46480;-64
2022/07/14 12:53:56;;;;;;;16.03;1.93;;;33.30;1.00;;;;;;5032974;28;46303;-64
2022/07/14 12:56:22;;;;;;;7.20;1.30;;;33.30;1.00;;;;;;5034740;28;46676;-65
2022/07/14 12:58:48;;;;;;;6.33;1.30;;;33.30;1.00;;;;;;5033973;28;47081;-67
2022/07/14 13:01:14;;;;;;;4.57;1.47;;;33.50;1.00;;;;;;5037180;28;46334;-65
2022/07/14 13:03:39;;;;;;;10.53;1.70;;;33.40;1.00;;;;;;5039568;28;46362;-64
2022/07/14 13:06:05;;;;;;;4.17;1.23;;;33.50;1.00;;;;;;5035514;28;46938;-64
2022/07/14 13:08:39;;;;;;;5.73;1.40;;;33.60;1.00;;;;;;5035719;28;46448;-64
2022/07/14 13:11:09;;;;;;;15.40;2.40;;;33.60;1.00;;;;;;5036738;28;46414;-64